Time;durP1;ratioP1;P1;durP2;ratioP2;P2;SDS_P1;SDS_P2;PMS_P1;PMS_P2;Temp;Humidity;BMP_temperature;BMP_pressure;BME280_temperature;BME280_humidity;BME280_pressure;Samples;Min_cycle;Max_cycle;Signal;HPM_P1;HPM_P2
2022/03/24 00:01:41;;;;;;;;;;;6.30;61.90;;;;;;5075750;28;20604;-83
2022/03/24 00:04:06;;;;;;;;;;;6.30;62.00;;;;;;5068536;28;20341;-82
2022/03/24 00:06:32;;;;;;;;;;;6.20;61.70;;;;;;5078697;28;19908;-83
2022/03/24 00:08:58;;;;;;;;;;;6.20;62.00;;;;;;5079095;28;19976;-83
2022/03/24 00:11:23;;;;;;;;;;;6.20;62.00;;;;;;5078781;28;19965;-83
2022/03/24 00:13:50;;;;;;;;;;;6.10;62.10;;;;;;5060170;28;19915;-83
2022/03/24 00:16:17;;;;;;;;;;;6.10;62.20;;;;;;5078650;28;19908;-83
2022/03/24 00:18:43;;;;;;;;;;;6.10;62.40;;;;;;5078861;28;19908;-83
2022/03/24 00:21:09;;;;;;;;;;;6.10;63.50;;;;;;5078548;28;19923;-83
2022/03/24 00:23:35;;;;;;;;;;;6.00;62.40;;;;;;5078747;28;19958;-82
2022/03/24 00:26:00;;;;;;;;;;;6.00;62.60;;;;;;5078498;28;20019;-82
2022/03/24 00:28:26;;;;;;;;;;;5.90;62.40;;;;;;5068660;28;19912;-82
2022/03/24 00:30:52;;;;;;;;;;;5.90;62.00;;;;;;5078492;28;19919;-82
2022/03/24 00:33:18;;;;;;;;;;;5.90;62.60;;;;;;5077838;28;19939;-82
2022/03/24 00:35:43;;;;;;;;;;;5.90;62.70;;;;;;5078127;28;20003;-82
2022/03/24 00:38:09;;;;;;;;;;;5.80;62.70;;;;;;5060373;28;19908;-82
2022/03/24 00:40:35;;;;;;;;;;;5.80;62.80;;;;;;5077323;28;19913;-82
2022/03/24 00:43:01;;;;;;;;;;;5.80;63.10;;;;;;5078369;28;19916;-82
2022/03/24 00:45:27;;;;;;;;;;;5.70;63.20;;;;;;5078307;28;19962;-82
2022/03/24 00:47:53;;;;;;;;;;;5.70;63.30;;;;;;5078419;28;19916;-82
2022/03/24 00:50:19;;;;;;;;;;;5.60;63.70;;;;;;5078048;28;19912;-83
2022/03/24 00:52:46;;;;;;;;;;;5.60;63.40;;;;;;5077308;28;20260;-83
2022/03/24 00:55:15;;;;;;;;;;;5.50;63.30;;;;;;5077891;28;20420;-83
2022/03/24 00:57:42;;;;;;;;;;;5.50;63.70;;;;;;5078225;28;19972;-83
2022/03/24 01:00:08;;;;;;;;;;;5.50;63.50;;;;;;5059871;28;20331;-82
2022/03/24 01:02:37;;;;;;;;;;;5.50;63.70;;;;;;5067937;28;19963;-82
2022/03/24 01:05:07;;;;;;;;;;;5.40;63.50;;;;;;5075112;28;20047;-82
2022/03/24 01:07:33;;;;;;;;;;;5.40;63.50;;;;;;5077787;28;19952;-83
2022/03/24 01:09:59;;;;;;;;;;;5.30;63.30;;;;;;5077686;28;19944;-83
2022/03/24 01:12:24;;;;;;;;;;;5.30;63.80;;;;;;5077738;28;19912;-83
2022/03/24 01:14:50;;;;;;;;;;;5.30;64.70;;;;;;5076879;28;19908;-82
2022/03/24 01:17:16;;;;;;;;;;;5.30;65.10;;;;;;5078150;28;20341;-82
2022/03/24 01:19:42;;;;;;;;;;;5.30;65.90;;;;;;5077717;28;20394;-82
2022/03/24 01:22:07;;;;;;;;;;;5.30;65.30;;;;;;5077645;28;19912;-82
2022/03/24 01:24:37;;;;;;;;;;;5.30;64.90;;;;;;5077556;28;19965;-82
2022/03/24 01:27:04;;;;;;;;;;;5.20;65.00;;;;;;5069724;28;19944;-82
2022/03/24 01:29:29;;;;;;;;;;;5.20;66.60;;;;;;5076661;28;19908;-82
2022/03/24 01:31:55;;;;;;;;;;;5.30;68.60;;;;;;5077615;28;19916;-82
2022/03/24 01:34:21;;;;;;;;;;;5.30;68.80;;;;;;5058545;28;19999;-82
2022/03/24 01:36:46;;;;;;;;;;;5.20;67.90;;;;;;5077280;28;19958;-82
2022/03/24 01:39:12;;;;;;;;;;;5.20;68.60;;;;;;5076552;28;19908;-82
2022/03/24 01:41:40;;;;;;;;;;;5.20;69.50;;;;;;5077849;28;19912;-82
2022/03/24 01:44:17;;;;;;;;;;;5.10;68.60;;;;;;5077606;28;19908;-82
2022/03/24 01:47:01;;;;;;;;;;;5.10;67.30;;;;;;5077684;28;19927;-81
2022/03/24 01:49:29;;;;;;;;;;;5.00;65.70;;;;;;5059673;28;19962;-82
2022/03/24 01:51:55;;;;;;;;;;;5.00;64.80;;;;;;5077175;28;19917;-82
2022/03/24 01:54:22;;;;;;;;;;;5.00;66.10;;;;;;5077435;28;20391;-82
2022/03/24 01:56:49;;;;;;;;;;;4.90;65.40;;;;;;5077505;28;19909;-82
2022/03/24 01:59:15;;;;;;;;;;;4.90;65.30;;;;;;5077847;28;19932;-82
2022/03/24 02:01:41;;;;;;;;;;;4.90;64.40;;;;;;5074496;28;19908;-82
2022/03/24 02:04:08;;;;;;;;;;;4.90;64.50;;;;;;5067040;28;19909;-82
2022/03/24 02:06:34;;;;;;;;;;;4.80;63.60;;;;;;5077072;28;19908;-81
2022/03/24 02:09:00;;;;;;;;;;;4.80;64.20;;;;;;5077748;28;19977;-82
2022/03/24 02:11:28;;;;;;;;;;;4.80;67.30;;;;;;5077312;28;19912;-82
2022/03/24 02:13:57;;;;;;;;;;;4.70;66.50;;;;;;5077542;28;20382;-82
2022/03/24 02:16:27;;;;;;;;;;;4.70;66.00;;;;;;5077278;28;20352;-82
2022/03/24 02:18:54;;;;;;;;;;;4.70;65.40;;;;;;5077725;28;19908;-82
2022/03/24 02:21:19;;;;;;;;;;;4.70;64.90;;;;;;5076929;28;20321;-82
2022/03/24 02:23:45;;;;;;;;;;;4.70;64.20;;;;;;5079209;28;19957;-82
2022/03/24 02:26:12;;;;;;;;;;;4.60;63.70;;;;;;5080189;28;20494;-82
2022/03/24 02:28:38;;;;;;;;;;;4.50;63.80;;;;;;5073276;28;20037;-82
2022/03/24 02:31:04;;;;;;;;;;;4.50;64.40;;;;;;5080850;28;20387;-82
2022/03/24 02:33:30;;;;;;;;;;;4.50;64.00;;;;;;5081011;28;19948;-81
2022/03/24 02:35:56;;;;;;;;;;;4.50;63.80;;;;;;5080030;28;19919;-81
2022/03/24 02:38:22;;;;;;;;;;;4.50;64.10;;;;;;5080947;28;19909;-81
2022/03/24 02:40:49;;;;;;;;;;;4.40;64.30;;;;;;5080458;28;19915;-81
2022/03/24 02:43:19;;;;;;;;;;;4.40;65.60;;;;;;5080874;28;19908;-81
2022/03/24 02:45:46;;;;;;;;;;;4.30;64.50;;;;;;5080441;28;19916;-81
2022/03/24 02:48:12;;;;;;;;;;;4.30;64.30;;;;;;5080661;28;19912;-81
2022/03/24 02:50:37;;;;;;;;;;;4.30;64.90;;;;;;5080577;28;19920;-81
2022/03/24 02:53:03;;;;;;;;;;;4.30;64.70;;;;;;5062669;28;20279;-81
2022/03/24 02:55:30;;;;;;;;;;;4.20;64.40;;;;;;5080779;28;19912;-81
2022/03/24 02:57:56;;;;;;;;;;;4.20;65.80;;;;;;5080679;28;19913;-81
2022/03/24 03:00:25;;;;;;;;;;;4.20;66.10;;;;;;5080625;28;20267;-81
2022/03/24 03:02:52;;;;;;;;;;;4.20;65.40;;;;;;5050073;28;20317;-81
2022/03/24 03:05:18;;;;;;;;;;;4.10;65.30;;;;;;5061600;28;19995;-81
2022/03/24 03:07:44;;;;;;;;;;;4.10;65.40;;;;;;5080266;28;19908;-81
2022/03/24 03:10:10;;;;;;;;;;;4.10;67.10;;;;;;5080055;28;19919;-81
2022/03/24 03:12:36;;;;;;;;;;;4.10;69.90;;;;;;5080347;28;19912;-81
2022/03/24 03:15:02;;;;;;;;;;;4.20;70.40;;;;;;5080194;28;20003;-81
2022/03/24 03:17:28;;;;;;;;;;;4.10;70.00;;;;;;5080243;28;19909;-81
2022/03/24 03:19:53;;;;;;;;;;;4.10;68.90;;;;;;5080429;28;20457;-81
2022/03/24 03:22:21;;;;;;;;;;;4.10;68.20;;;;;;5079786;28;19966;-81
2022/03/24 03:24:46;;;;;;;;;;;4.10;68.80;;;;;;5048738;28;19904;-81
2022/03/24 03:27:12;;;;;;;;;;;4.10;68.90;;;;;;5070711;28;20358;-81
2022/03/24 03:29:38;;;;;;;;;;;4.00;68.70;;;;;;5066822;28;19944;-81
2022/03/24 03:32:04;;;;;;;;;;;4.00;70.50;;;;;;5079794;28;19915;-81
2022/03/24 03:34:30;;;;;;;;;;;4.00;70.70;;;;;;5079354;28;19916;-82
2022/03/24 03:36:56;;;;;;;;;;;4.00;72.00;;;;;;5061421;28;19913;-82
2022/03/24 03:39:22;;;;;;;;;;;4.00;71.30;;;;;;5079759;28;20268;-82
2022/03/24 03:41:48;;;;;;;;;;;4.00;71.20;;;;;;5079763;28;20390;-82
2022/03/24 03:44:15;;;;;;;;;;;3.90;68.90;;;;;;5079787;28;19908;-82
2022/03/24 03:46:40;;;;;;;;;;;3.90;69.00;;;;;;5079751;28;20371;-82
2022/03/24 03:49:07;;;;;;;;;;;3.90;70.00;;;;;;5079703;28;19931;-82
2022/03/24 03:51:34;;;;;;;;;;;3.90;71.70;;;;;;5079283;28;20338;-82
2022/03/24 03:54:00;;;;;;;;;;;3.90;70.30;;;;;;5079494;28;20328;-82
2022/03/24 03:56:25;;;;;;;;;;;3.80;71.70;;;;;;5079449;28;19959;-82
2022/03/24 03:58:51;;;;;;;;;;;3.90;72.70;;;;;;5079738;28;19932;-82
2022/03/24 04:01:17;;;;;;;;;;;3.80;69.90;;;;;;5079423;28;19959;-82
2022/03/24 04:03:42;;;;;;;;;;;3.70;68.90;;;;;;5065996;28;19962;-82
2022/03/24 04:06:10;;;;;;;;;;;3.70;68.00;;;;;;5079111;28;19915;-82
2022/03/24 04:08:37;;;;;;;;;;;3.70;67.50;;;;;;5061222;28;19936;-82
2022/03/24 04:11:03;;;;;;;;;;;3.60;67.20;;;;;;5079153;28;19912;-82
2022/03/24 04:13:29;;;;;;;;;;;3.60;66.90;;;;;;5079229;28;20350;-82
2022/03/24 04:15:55;;;;;;;;;;;3.60;66.70;;;;;;5079140;28;19963;-82
2022/03/24 04:18:22;;;;;;;;;;;3.50;66.70;;;;;;5079064;28;20003;-82
2022/03/24 04:20:48;;;;;;;;;;;3.50;66.10;;;;;;5078729;28;19912;-82
2022/03/24 04:23:13;;;;;;;;;;;3.50;66.10;;;;;;5078946;28;19915;-82
2022/03/24 04:25:39;;;;;;;;;;;3.40;66.00;;;;;;5060551;28;19915;-82
2022/03/24 04:28:05;;;;;;;;;;;3.40;66.80;;;;;;5069958;28;19912;-81
2022/03/24 04:30:31;;;;;;;;;;;3.40;65.80;;;;;;5078585;28;20003;-81
2022/03/24 04:32:58;;;;;;;;;;;3.40;65.90;;;;;;5078831;28;19908;-81
2022/03/24 04:35:23;;;;;;;;;;;3.40;66.50;;;;;;5078453;28;19916;-82
2022/03/24 04:37:50;;;;;;;;;;;3.30;66.20;;;;;;5060498;28;20283;-82
2022/03/24 04:40:16;;;;;;;;;;;3.30;67.60;;;;;;5078157;28;19909;-82
2022/03/24 04:42:45;;;;;;;;;;;3.30;70.20;;;;;;5060914;28;19916;-82
2022/03/24 04:45:13;;;;;;;;;;;3.40;71.70;;;;;;5078254;28;20371;-82
2022/03/24 04:47:42;;;;;;;;;;;3.40;72.40;;;;;;5077875;28;19921;-82
2022/03/24 04:50:08;;;;;;;;;;;3.40;71.70;;;;;;5078192;28;19920;-82
2022/03/24 04:52:33;;;;;;;;;;;3.30;71.60;;;;;;5078184;28;19916;-82
2022/03/24 04:54:59;;;;;;;;;;;3.30;73.90;;;;;;5078131;28;20478;-81
2022/03/24 04:57:28;;;;;;;;;;;3.40;74.60;;;;;;5078310;28;19963;-81
2022/03/24 04:59:54;;;;;;;;;;;3.30;73.90;;;;;;5078071;28;19916;-81
2022/03/24 05:02:20;;;;;;;;;;;3.30;73.80;;;;;;5070121;28;19915;-82
2022/03/24 05:04:45;;;;;;;;;;;3.30;73.40;;;;;;5072884;28;19908;-82
2022/03/24 05:07:11;;;;;;;;;;;3.20;73.20;;;;;;5078089;28;19908;-82
2022/03/24 05:09:38;;;;;;;;;;;3.20;72.50;;;;;;5077858;28;20367;-82
2022/03/24 05:12:03;;;;;;;;;;;3.20;73.10;;;;;;5078202;28;19919;-82
2022/03/24 05:14:31;;;;;;;;;;;3.20;73.20;;;;;;5077833;28;19909;-81
2022/03/24 05:16:57;;;;;;;;;;;3.20;72.10;;;;;;5078213;28;19951;-81
2022/03/24 05:19:22;;;;;;;;;;;3.10;72.20;;;;;;5077907;28;19959;-81
2022/03/24 05:21:48;;;;;;;;;;;3.10;71.60;;;;;;5077874;28;19909;-81
2022/03/24 05:24:14;;;;;;;;;;;3.10;72.20;;;;;;5077564;28;20369;-82
2022/03/24 05:26:40;;;;;;;;;;;3.10;72.10;;;;;;5073222;28;19909;-83
2022/03/24 05:29:06;;;;;;;;;;;3.00;71.40;;;;;;5073435;28;19916;-83
2022/03/24 05:31:31;;;;;;;;;;;3.00;70.30;;;;;;5077895;28;19916;-80
2022/03/24 05:33:57;;;;;;;;;;;3.00;69.20;;;;;;5077241;28;20441;-85
2022/03/24 05:36:23;;;;;;;;;;;2.90;68.80;;;;;;5077504;28;19908;-84
2022/03/24 05:38:49;;;;;;;;;;;2.90;68.30;;;;;;5077893;28;19915;-81
2022/03/24 05:41:15;;;;;;;;;;;2.90;68.10;;;;;;5077476;28;19913;-82
2022/03/24 05:44:02;;;;;;;;;;;2.90;69.60;;;;;;5077619;28;19908;-82
2022/03/24 05:46:27;;;;;;;;;;;2.90;70.50;;;;;;5077433;28;20287;-84
2022/03/24 05:48:53;;;;;;;;;;;2.80;71.00;;;;;;5077407;28;19909;-84
2022/03/24 05:51:19;;;;;;;;;;;2.80;69.80;;;;;;5077349;28;19921;-79
2022/03/24 05:53:44;;;;;;;;;;;2.80;69.40;;;;;;5077410;28;19991;-74
2022/03/24 05:56:10;;;;;;;;;;;2.80;70.30;;;;;;5077549;28;19915;-73
2022/03/24 05:58:35;;;;;;;;;;;2.80;69.50;;;;;;5061009;28;19915;-75
2022/03/24 06:01:01;;;;;;;;;;;2.70;68.90;;;;;;5063867;28;19909;-76
2022/03/24 06:03:27;;;;;;;;;;;2.70;68.50;;;;;;5068037;28;19909;-77
2022/03/24 06:05:53;;;;;;;;;;;2.70;68.10;;;;;;5081370;28;19909;-72
2022/03/24 06:08:19;;;;;;;;;;;2.70;67.80;;;;;;5079477;28;19915;-74
2022/03/24 06:10:48;;;;;;;;;;;2.70;69.10;;;;;;5081216;28;19951;-75
2022/03/24 06:13:14;;;;;;;;;;;2.70;69.10;;;;;;5081079;28;19915;-81
2022/03/24 06:15:40;;;;;;;;;;;2.70;70.50;;;;;;5081232;28;19909;-81
2022/03/24 06:18:05;;;;;;;;;;;2.70;70.50;;;;;;5081072;28;19915;-81
2022/03/24 06:20:31;;;;;;;;;;;2.70;71.80;;;;;;5081121;28;19950;-81
2022/03/24 06:22:57;;;;;;;;;;;2.80;72.00;;;;;;5080914;28;20061;-84
2022/03/24 06:25:22;;;;;;;;;;;2.70;71.50;;;;;;5081057;28;19915;-83
2022/03/24 06:27:49;;;;;;;;;;;2.80;70.40;;;;;;5071719;28;19931;-83
2022/03/24 06:30:15;;;;;;;;;;;2.80;71.70;;;;;;5063280;28;19935;-81
2022/03/24 06:32:41;;;;;;;;;;;2.80;70.70;;;;;;5080842;28;19994;-83
2022/03/24 06:35:08;;;;;;;;;;;2.80;71.10;;;;;;5080713;28;20007;-83
2022/03/24 06:37:40;;;;;;;;;;;2.90;71.40;;;;;;5062506;28;19958;-82
2022/03/24 06:40:09;;;;;;;;;;;2.90;73.00;;;;;;5080521;28;20003;-83
2022/03/24 06:42:35;;;;;;;;;;;3.00;72.60;;;;;;5066969;28;19957;-84
2022/03/24 06:45:01;;;;;;;;;;;2.90;70.70;;;;;;5080112;28;19999;-83
2022/03/24 06:47:27;;;;;;;;;;;3.00;70.00;;;;;;5080522;28;19931;-83
2022/03/24 06:49:52;;;;;;;;;;;3.00;71.60;;;;;;5080685;28;19908;-82
2022/03/24 06:52:18;;;;;;;;;;;3.10;72.90;;;;;;5080428;28;19908;-83
2022/03/24 06:54:44;;;;;;;;;;;3.10;73.10;;;;;;5062446;28;19908;-82
2022/03/24 06:57:14;;;;;;;;;;;3.20;74.10;;;;;;5080687;28;19908;-81
2022/03/24 06:59:43;;;;;;;;;;;3.20;73.70;;;;;;5080530;28;20354;-82
2022/03/24 07:02:09;;;;;;;;;;;3.30;73.50;;;;;;5073894;28;19962;-82
2022/03/24 07:04:35;;;;;;;;;;;3.30;73.20;;;;;;5073879;28;19913;-82
2022/03/24 07:07:01;;;;;;;;;;;3.40;72.20;;;;;;5080332;28;19951;-82
2022/03/24 07:09:27;;;;;;;;;;;3.40;71.90;;;;;;5079864;28;19916;-81
2022/03/24 07:11:54;;;;;;;;;;;3.40;70.50;;;;;;5080302;28;19920;-82
2022/03/24 07:14:19;;;;;;;;;;;3.50;70.80;;;;;;5080184;28;19908;-82
2022/03/24 07:16:45;;;;;;;;;;;3.50;69.90;;;;;;5080384;28;19916;-82
2022/03/24 07:19:12;;;;;;;;;;;3.60;69.60;;;;;;5080345;28;20443;-81
2022/03/24 07:21:37;;;;;;;;;;;3.60;68.80;;;;;;5080006;28;19962;-81
2022/03/24 07:24:03;;;;;;;;;;;3.70;68.70;;;;;;5079995;28;19908;-81
2022/03/24 07:26:29;;;;;;;;;;;3.80;68.60;;;;;;5077032;28;19916;-81
2022/03/24 07:28:54;;;;;;;;;;;3.80;68.50;;;;;;5074062;28;19912;-82
2022/03/24 07:31:22;;;;;;;;;;;3.90;68.60;;;;;;5079988;28;19913;-82
2022/03/24 07:33:48;;;;;;;;;;;3.90;68.90;;;;;;5061303;28;19936;-82
2022/03/24 07:36:15;;;;;;;;;;;4.00;68.60;;;;;;5079687;28;19909;-82
2022/03/24 07:38:41;;;;;;;;;;;4.10;69.00;;;;;;5079813;28;19916;-81
2022/03/24 07:41:08;;;;;;;;;;;4.20;69.60;;;;;;5061546;28;20295;-82
2022/03/24 07:43:33;;;;;;;;;;;4.30;69.00;;;;;;5079770;28;19916;-82
2022/03/24 07:45:59;;;;;;;;;;;4.30;68.70;;;;;;5079730;28;19917;-81
2022/03/24 07:48:25;;;;;;;;;;;4.40;68.80;;;;;;5079592;28;19995;-82
2022/03/24 07:50:52;;;;;;;;;;;4.50;68.30;;;;;;5079505;28;19912;-82
2022/03/24 07:53:17;;;;;;;;;;;4.60;68.90;;;;;;5079512;28;19961;-82
2022/03/24 07:55:44;;;;;;;;;;;4.70;71.70;;;;;;5079621;28;19975;-82
2022/03/24 07:58:11;;;;;;;;;;;4.80;72.40;;;;;;5079602;28;20385;-82
2022/03/24 08:00:37;;;;;;;;;;;4.90;71.00;;;;;;5079570;28;20005;-82
2022/03/24 08:03:05;;;;;;;;;;;5.00;70.20;;;;;;5065743;28;19909;-82
2022/03/24 08:05:31;;;;;;;;;;;5.10;71.70;;;;;;5079388;28;19916;-82
2022/03/24 08:07:57;;;;;;;;;;;5.30;74.10;;;;;;5079091;28;19912;-82
2022/03/24 08:10:23;;;;;;;;;;;5.40;74.10;;;;;;5079228;28;20355;-82
2022/03/24 08:12:49;;;;;;;;;;;5.50;73.20;;;;;;5079041;28;19916;-82
2022/03/24 08:15:15;;;;;;;;;;;5.60;73.00;;;;;;5079527;28;20375;-82
2022/03/24 08:17:40;;;;;;;;;;;5.80;72.10;;;;;;5078961;28;20383;-82
2022/03/24 08:20:06;;;;;;;;;;;6.10;74.00;;;;;;5078820;28;19990;-82
2022/03/24 08:22:32;;;;;;;;;;;6.90;76.20;;;;;;5077901;28;19912;-82
2022/03/24 08:24:58;;;;;;;;;;;7.90;76.50;;;;;;5060979;28;20008;-81
2022/03/24 08:27:24;;;;;;;;;;;8.80;76.60;;;;;;5069491;28;19909;-81
2022/03/24 08:29:50;;;;;;;;;;;9.80;76.40;;;;;;5078902;28;19912;-81
2022/03/24 08:32:15;;;;;;;;;;;10.80;75.40;;;;;;5078515;28;19919;-81
2022/03/24 08:34:41;;;;;;;;;;;11.80;74.60;;;;;;5078364;28;19909;-81
2022/03/24 08:37:07;;;;;;;;;;;12.60;73.30;;;;;;5078385;28;20275;-81
2022/03/24 08:39:33;;;;;;;;;;;13.40;72.20;;;;;;5078468;28;19909;-81
2022/03/24 08:41:58;;;;;;;;;;;14.20;70.30;;;;;;5078621;28;20271;-81
2022/03/24 08:44:24;;;;;;;;;;;14.80;68.90;;;;;;5078584;28;19912;-81
2022/03/24 08:46:50;;;;;;;;;;;15.50;68.10;;;;;;5078562;28;20420;-81
2022/03/24 08:49:15;;;;;;;;;;;16.10;67.00;;;;;;5060582;28;19920;-81
2022/03/24 08:51:41;;;;;;;;;;;16.70;65.80;;;;;;5060452;28;19979;-81
2022/03/24 08:54:07;;;;;;;;;;;17.30;65.40;;;;;;5078307;28;20330;-81
2022/03/24 08:56:33;;;;;;;;;;;17.90;65.00;;;;;;5060227;28;19914;-81
2022/03/24 08:58:59;;;;;;;;;;;18.40;64.20;;;;;;5078737;28;19908;-81
2022/03/24 09:01:27;;;;;;;;;;;19.00;63.30;;;;;;5077618;28;20046;-81
2022/03/24 09:03:52;;;;;;;;;;;19.50;62.00;;;;;;5065717;28;19908;-81
2022/03/24 09:06:19;;;;;;;;;;;19.90;61.10;;;;;;5077856;28;20298;-81
2022/03/24 09:08:44;;;;;;;;;;;20.40;59.80;;;;;;5078237;28;19908;-81
2022/03/24 09:11:10;;;;;;;;;;;20.80;59.70;;;;;;5077836;28;20294;-81
2022/03/24 09:13:36;;;;;;;;;;;21.30;59.70;;;;;;5078223;28;19909;-81
2022/03/24 09:16:01;;;;;;;;;;;21.70;58.80;;;;;;5077994;28;19908;-81
2022/03/24 09:18:27;;;;;;;;;;;22.10;58.50;;;;;;5078090;28;19909;-81
2022/03/24 09:20:53;;;;;;;;;;;22.50;56.80;;;;;;5059614;28;19931;-81
2022/03/24 09:23:18;;;;;;;;;;;22.80;55.10;;;;;;5077988;28;19908;-81
2022/03/24 09:25:44;;;;;;;;;;;23.20;55.00;;;;;;5077768;28;19909;-81
2022/03/24 09:28:10;;;;;;;;;;;23.50;54.90;;;;;;5068781;28;20290;-81
2022/03/24 09:30:36;;;;;;;;;;;23.80;53.90;;;;;;5077723;28;19916;-82
2022/03/24 09:33:02;;;;;;;;;;;24.20;55.10;;;;;;5077703;28;19908;-82
2022/03/24 09:35:28;;;;;;;;;;;24.60;53.50;;;;;;5058982;28;19947;-82
2022/03/24 09:37:54;;;;;;;;;;;24.80;52.10;;;;;;5077773;28;19915;-82
2022/03/24 09:40:19;;;;;;;;;;;25.30;52.40;;;;;;5077445;28;19913;-82
2022/03/24 09:42:46;;;;;;;;;;;25.50;52.30;;;;;;5078327;28;19958;-82
2022/03/24 09:45:13;;;;;;;;;;;25.80;52.10;;;;;;5077613;28;19908;-82
2022/03/24 09:47:39;;;;;;;;;;;26.10;49.30;;;;;;5077566;28;19924;-82
2022/03/24 09:50:05;;;;;;;;;;;26.30;49.90;;;;;;5077485;28;19983;-82
2022/03/24 09:52:31;;;;;;;;;;;26.50;48.30;;;;;;5077365;28;19955;-82
2022/03/24 09:54:56;;;;;;;;;;;26.70;48.50;;;;;;5077498;28;19909;-82
2022/03/24 09:57:22;;;;;;;;;;;26.90;47.70;;;;;;5059710;28;19915;-82
2022/03/24 09:59:48;;;;;;;;;;;26.90;46.60;;;;;;5077576;28;19996;-82
2022/03/24 10:02:14;;;;;;;;;;;27.10;47.90;;;;;;5070216;28;20290;-81
2022/03/24 10:04:44;;;;;;;;;;;27.30;46.60;;;;;;5086897;28;19908;-82
2022/03/24 10:07:09;;;;;;;;;;;27.60;47.10;;;;;;5077366;28;19909;-82
2022/03/24 10:09:40;;;;;;;;;;;27.80;45.90;;;;;;5077367;28;19958;-82
2022/03/24 10:12:07;;;;;;;;;;;28.00;47.50;;;;;;5077479;28;20371;-82
2022/03/24 10:14:33;;;;;;;;;;;28.40;47.00;;;;;;5077246;28;19954;-82
2022/03/24 10:17:06;;;;;;;;;;;28.60;46.20;;;;;;5077543;28;19915;-82
2022/03/24 10:19:31;;;;;;;;;;;29.00;45.30;;;;;;5077509;28;19908;-82
2022/03/24 10:21:57;;;;;;;;;;;29.30;47.20;;;;;;5077294;28;19909;-81
2022/03/24 10:24:23;;;;;;;;;;;29.40;45.30;;;;;;5077022;28;19915;-81
2022/03/24 10:26:50;;;;;;;;;;;29.50;45.20;;;;;;5071313;28;19909;-81
2022/03/24 10:29:22;;;;;;;;;;;29.70;46.70;;;;;;5074368;28;19909;-81
2022/03/24 10:31:51;;;;;;;;;;;30.00;45.20;;;;;;5077294;28;19913;-81
2022/03/24 10:34:26;;;;;;;;;;;30.20;45.20;;;;;;5076690;28;20424;-81
2022/03/24 10:36:52;;;;;;;;;;;30.60;41.80;;;;;;5077021;28;20330;-81
2022/03/24 10:39:23;;;;;;;;;;;30.70;46.10;;;;;;5076801;28;19912;-81
2022/03/24 10:41:49;;;;;;;;;;;30.80;44.10;;;;;;5077252;28;19916;-81
2022/03/24 10:44:15;;;;;;;;;;;30.80;43.30;;;;;;5078276;28;20315;-81
2022/03/24 10:46:43;;;;;;;;;;;30.80;41.40;;;;;;5080632;28;19927;-81
2022/03/24 10:49:15;;;;;;;;;;;30.80;41.70;;;;;;5080908;28;19930;-81
2022/03/24 10:51:42;;;;;;;;;;;30.80;43.20;;;;;;5080253;28;19919;-81
2022/03/24 10:54:17;;;;;;;;;;;31.00;43.40;;;;;;5062811;28;20022;-81
2022/03/24 10:56:52;;;;;;;;;;;31.20;42.80;;;;;;5062572;28;20342;-81
2022/03/24 10:59:18;;;;;;;;;;;31.30;41.20;;;;;;5080729;28;20395;-81
2022/03/24 11:01:43;;;;;;;;;;;31.20;38.50;;;;;;5077329;28;19909;-81
2022/03/24 11:04:09;;;;;;;;;;;31.10;39.30;;;;;;5052354;28;20006;-80
2022/03/24 11:06:35;;;;;;;;;;;31.00;40.80;;;;;;5080100;28;20406;-81
2022/03/24 11:09:01;;;;;;;;;;;31.10;41.50;;;;;;5062416;28;19975;-80
2022/03/24 11:11:28;;;;;;;;;;;31.20;39.20;;;;;;5080264;28;20007;-80
2022/03/24 11:13:55;;;;;;;;;;;31.50;41.90;;;;;;5062323;28;19908;-81
2022/03/24 11:16:26;;;;;;;;;;;31.60;40.40;;;;;;5080176;28;20475;-81
2022/03/24 11:18:52;;;;;;;;;;;31.70;40.80;;;;;;5080283;28;19977;-81
2022/03/24 11:21:43;;;;;;;;;;;31.80;40.80;;;;;;5061702;28;19920;-81
2022/03/24 11:24:09;;;;;;;;;;;31.90;40.60;;;;;;5079929;28;19936;-80
2022/03/24 11:26:35;;;;;;;;;;;32.10;40.50;;;;;;5076263;28;20291;-80
2022/03/24 11:29:01;;;;;;;;;;;32.10;41.00;;;;;;5075533;28;20276;-80
2022/03/24 11:31:31;;;;;;;;;;;32.20;40.60;;;;;;5062090;28;19948;-81
2022/03/24 11:34:00;;;;;;;;;;;32.20;41.10;;;;;;5061793;28;19917;-80
2022/03/24 11:36:27;;;;;;;;;;;32.30;40.70;;;;;;5079783;28;19919;-80
2022/03/24 11:38:58;;;;;;;;;;;32.40;41.40;;;;;;5079674;28;19981;-81
2022/03/24 11:41:26;;;;;;;;;;;32.50;40.80;;;;;;5079777;28;19912;-80
2022/03/24 11:43:53;;;;;;;;;;;32.50;41.10;;;;;;5079703;28;19908;-80
2022/03/24 11:46:26;;;;;;;;;;;32.60;41.20;;;;;;5079690;28;19921;-81
2022/03/24 11:49:10;;;;;;;;;;;32.70;39.50;;;;;;5079645;28;19909;-81
2022/03/24 11:51:36;;;;;;;;;;;32.60;40.00;;;;;;5079263;28;19912;-81
2022/03/24 11:54:03;;;;;;;;;;;32.60;39.00;;;;;;5061578;28;20373;-81
2022/03/24 11:56:29;;;;;;;;;;;32.60;39.30;;;;;;5079322;28;20390;-81
2022/03/24 11:58:55;;;;;;;;;;;32.60;40.20;;;;;;5079944;28;19908;-81
2022/03/24 12:01:21;;;;;;;;;;;32.70;40.70;;;;;;5079270;28;20454;-81
2022/03/24 12:03:56;;;;;;;;;;;32.70;40.60;;;;;;5048477;28;19940;-81
2022/03/24 12:06:40;;;;;;;;;;;32.70;39.10;;;;;;5078952;28;19908;-80
2022/03/24 12:09:07;;;;;;;;;;;32.60;37.60;;;;;;5079352;28;19948;-80
2022/03/24 12:11:36;;;;;;;;;;;32.60;38.90;;;;;;5079187;28;19908;-80
2022/03/24 12:14:03;;;;;;;;;;;32.60;39.00;;;;;;5079263;28;19916;-80
2022/03/24 12:16:29;;;;;;;;;;;32.50;38.60;;;;;;5079002;28;19931;-80
2022/03/24 12:18:55;;;;;;;;;;;32.40;38.10;;;;;;5079334;28;20356;-81
2022/03/24 12:21:21;;;;;;;;;;;32.40;38.40;;;;;;5078610;28;19912;-80
2022/03/24 12:24:02;;;;;;;;;;;32.40;37.90;;;;;;5079003;28;20294;-80
2022/03/24 12:26:31;;;;;;;;;;;32.40;37.60;;;;;;5067415;28;19951;-80
2022/03/24 12:29:11;;;;;;;;;;;32.20;36.50;;;;;;5073624;28;19909;-80
2022/03/24 12:31:56;;;;;;;;;;;32.20;38.30;;;;;;5061143;28;20339;-80
2022/03/24 12:34:22;;;;;;;;;;;32.20;37.40;;;;;;5078248;28;19909;-80
2022/03/24 12:36:48;;;;;;;;;;;32.00;37.50;;;;;;5078532;28;19957;-80
2022/03/24 12:39:29;;;;;;;;;;;32.00;37.90;;;;;;5060220;28;19995;-81
2022/03/24 12:42:05;;;;;;;;;;;31.90;37.80;;;;;;5078882;28;20309;-81
2022/03/24 12:44:49;;;;;;;;;;;31.80;36.30;;;;;;5060905;28;19908;-81
2022/03/24 12:47:31;;;;;;;;;;;31.70;36.30;;;;;;5078476;28;19977;-81
2022/03/24 12:49:58;;;;;;;;;;;31.50;35.50;;;;;;5060867;28;19909;-80
2022/03/24 12:52:43;;;;;;;;;;;31.30;35.60;;;;;;5078256;28;19915;-80
2022/03/24 12:55:21;;;;;;;;;;;31.10;36.80;;;;;;5077277;28;20199;-80
2022/03/24 12:58:00;;;;;;;;;;;30.90;35.80;;;;;;5060653;28;20321;-80
2022/03/24 13:00:27;;;;;;;;;;;30.90;36.90;;;;;;5066329;28;19939;-81
2022/03/24 13:02:53;;;;;;;;;;;30.80;36.90;;;;;;5065605;28;19934;-80
2022/03/24 13:05:24;;;;;;;;;;;30.70;36.70;;;;;;5059553;28;19912;-80
2022/03/24 13:07:51;;;;;;;;;;;30.60;37.70;;;;;;5077749;28;19935;-80
2022/03/24 13:10:17;;;;;;;;;;;30.50;36.80;;;;;;5060142;28;19931;-80
2022/03/24 13:12:44;;;;;;;;;;;30.40;36.80;;;;;;5078036;28;19909;-80
2022/03/24 13:15:21;;;;;;;;;;;30.30;36.40;;;;;;5060189;28;19912;-80
2022/03/24 13:17:50;;;;;;;;;;;30.00;36.70;;;;;;5078021;28;19915;-81
2022/03/24 13:20:17;;;;;;;;;;;29.70;37.30;;;;;;5077803;28;20279;-81
2022/03/24 13:22:45;;;;;;;;;;;29.30;37.60;;;;;;5077740;28;20001;-80
2022/03/24 13:25:11;;;;;;;;;;;28.80;35.70;;;;;;5077986;28;19923;-80
2022/03/24 13:27:37;;;;;;;;;;;28.30;35.80;;;;;;5068124;28;19908;-81
2022/03/24 13:30:10;;;;;;;;;;;28.00;35.90;;;;;;5077988;28;19909;-81
2022/03/24 13:32:36;;;;;;;;;;;27.70;37.60;;;;;;5059517;28;19908;-81
2022/03/24 13:35:04;;;;;;;;;;;27.40;37.20;;;;;;5077264;28;19909;-81
2022/03/24 13:37:34;;;;;;;;;;;27.00;37.20;;;;;;5077503;28;19923;-81
2022/03/24 13:39:59;;;;;;;;;;;26.80;37.90;;;;;;5077655;28;19909;-81
2022/03/24 13:42:26;;;;;;;;;;;26.60;38.90;;;;;;5077495;28;19912;-81
2022/03/24 13:44:52;;;;;;;;;;;26.30;37.00;;;;;;5077739;28;19914;-81
2022/03/24 13:47:20;;;;;;;;;;;26.00;37.70;;;;;;5077532;28;19987;-81
2022/03/24 13:49:46;;;;;;;;;;;25.80;37.20;;;;;;5077724;28;20003;-81
2022/03/24 13:52:28;;;;;;;;;;;25.60;37.90;;;;;;5059410;28;20406;-81
2022/03/24 13:55:02;;;;;;;;;;;25.50;39.00;;;;;;5077578;28;19908;-81
2022/03/24 13:57:28;;;;;;;;;;;25.20;36.90;;;;;;5059635;28;19912;-81
2022/03/24 13:59:54;;;;;;;;;;;25.10;37.90;;;;;;5077596;28;19955;-79
2022/03/24 14:02:27;;;;;;;;;;;24.80;36.70;;;;;;5069631;28;19913;-79
2022/03/24 14:05:14;;;;;;;;;;;24.70;37.60;;;;;;5073256;28;19912;-81
2022/03/24 14:07:59;;;;;;;;;;;24.50;37.30;;;;;;5077510;28;19908;-82
2022/03/24 14:10:43;;;;;;;;;;;24.30;37.10;;;;;;5065433;28;20424;-82
2022/03/24 14:13:16;;;;;;;;;;;24.10;37.10;;;;;;5077320;28;19908;-82
2022/03/24 14:15:42;;;;;;;;;;;23.90;37.10;;;;;;5059436;28;20274;-81
2022/03/24 14:18:21;;;;;;;;;;;23.80;37.90;;;;;;5077304;28;19915;-82
2022/03/24 14:20:49;;;;;;;;;;;23.60;37.20;;;;;;5080595;28;19919;-82
2022/03/24 14:23:27;;;;;;;;;;;23.50;37.60;;;;;;5081374;28;19927;-82
2022/03/24 14:25:52;;;;;;;;;;;23.40;38.10;;;;;;5080979;28;19931;-82